Dades meteomassalio
Diari Summary for Marc 10, 2017 Units:  English    Metric   Both
« Previous Day
Next Day »
Diari Semanal Mensual Anual Personalitzat
  Maxima: Minima: Mijana:
Temperatura: TemperatureC °F 10.2 °F 18.3 °F
Rosada: DewpointC °F 0.1 °F 4.8 °F
Humitat: Humidity % 18 % 45 %
Velocitat del vent: WindSpeedKMH mph 0.0 mph 8.8 mph
Racha vent: WindSpeedGustKMH mph - -
Vent:- - WNW
Pressio: PressurehPa in 1016.8 in -
Pluja: 0.0 in    
Historical Graphs
 
 
Tabular Data for Marc 10, 2017
Time Temperature Dew Point Pressure Wind Wind Speed Wind Gust Humidity Rainfall Rate (Hourly) solar Conditions
TemperatureC °F DewpointC °F PressurehPa in Calm     Humidity % HourlyPrecipMM in SolarRadiationWatts/m^2 W/m2 Conditions
00:01 12.8 °F 7.1 °F 1023.2 in Calm     68 % 0.0 in 0.0 W/m2 CLR
00:06 13.0 °F 7.0 °F 1023.2 in WSW 5.6 mph 5.6 mph 67 % 0.0 in 0.0 W/m2 CLR
00:11 13.3 °F 7.1 °F 1023.2 in Calm     66 % 0.0 in 0.0 W/m2 CLR
00:16 13.2 °F 6.9 °F 1023.6 in Calm     66 % 0.0 in 0.0 W/m2 CLR
00:21 12.8 °F 6.8 °F 1023.6 in Calm     67 % 0.0 in 0.0 W/m2 CLR
00:22 12.8 °F 6.8 °F 1023.6 in Calm     67 % 0.0 in 0.0 W/m2 CLR
00:27 12.9 °F 6.7 °F 1023.6 in Calm     66 % 0.0 in 0.0 W/m2 CLR
00:32 13.0 °F 6.8 °F 1023.6 in Calm     66 % 0.0 in 0.0 W/m2 CLR
00:37 13.0 °F 6.8 °F 1023.6 in Calm     66 % 0.0 in 0.0 W/m2 CLR
00:43 12.7 °F 6.7 °F 1023.6 in Calm     67 % 0.0 in 0.0 W/m2 CLR
00:48 12.6 °F 6.7 °F 1023.6 in Calm     67 % 0.0 in 0.0 W/m2 CLR
00:53 12.8 °F 6.6 °F 1023.2 in WSW 3.7 mph 3.7 mph 66 % 0.0 in 0.0 W/m2 CLR
00:58 13.1 °F 6.8 °F 1023.2 in SW 7.4 mph 7.4 mph 66 % 0.0 in 0.0 W/m2 CLR
01:03 13.2 °F 6.7 °F 1023.2 in SW 5.6 mph 5.6 mph 65 % 0.0 in 0.0 W/m2 CLR
01:09 13.2 °F 6.8 °F 1023.2 in Calm     65 % 0.0 in 0.0 W/m2 CLR
01:14 13.2 °F 6.7 °F 1023.2 in Calm     65 % 0.0 in 0.0 W/m2 CLR
01:19 12.9 °F 6.7 °F 1023.2 in Calm     66 % 0.0 in 0.0 W/m2 CLR
01:24 12.8 °F 6.6 °F 1023.2 in Calm     66 % 0.0 in 0.0 W/m2 CLR
01:29 12.9 °F 6.7 °F 1023.2 in Calm     66 % 0.0 in 0.0 W/m2 CLR
01:34 13.1 °F 6.6 °F 1023.2 in Calm     65 % 0.0 in 0.0 W/m2 CLR
01:39 13.3 °F 6.7 °F 1023.2 in Calm     64 % 0.0 in 0.0 W/m2 CLR
01:44 13.5 °F 6.8 °F 1023.2 in Calm     64 % 0.0 in 0.0 W/m2 CLR
01:50 13.4 °F 6.6 °F 1023.2 in Calm     63 % 0.0 in 0.0 W/m2 CLR
01:55 13.4 °F 6.5 °F 1023.2 in Calm     63 % 0.0 in 0.0 W/m2 CLR
02:00 13.4 °F 6.6 °F 1023.2 in Calm     63 % 0.0 in 0.0 W/m2 CLR
02:05 13.4 °F 6.5 °F 1023.2 in Calm     63 % 0.0 in 0.0 W/m2 CLR
02:10 13.3 °F 6.4 °F 1023.2 in Calm     63 % 0.0 in 0.0 W/m2 CLR
02:15 13.1 °F 6.4 °F 1023.2 in Calm     64 % 0.0 in 0.0 W/m2 CLR
02:20 12.9 °F 6.2 °F 1023.2 in Calm     64 % 0.0 in 0.0 W/m2 CLR
02:25 12.8 °F 6.2 °F 1022.9 in Calm     64 % 0.0 in 0.0 W/m2 CLR
02:30 12.7 °F 6.3 °F 1022.9 in Calm     65 % 0.0 in 0.0 W/m2 CLR
02:35 12.4 °F 6.3 °F 1022.9 in Calm     66 % 0.0 in 0.0 W/m2 CLR
02:41 12.3 °F 6.1 °F 1022.9 in Calm     66 % 0.0 in 0.0 W/m2 CLR
02:46 12.3 °F 6.1 °F 1022.9 in Calm     66 % 0.0 in 0.0 W/m2 CLR
02:51 12.4 °F 6.0 °F 1022.9 in Calm     65 % 0.0 in 0.0 W/m2 CLR
02:56 12.5 °F 6.1 °F 1022.6 in WSW 3.2 mph 3.2 mph 65 % 0.0 in 0.0 W/m2 CLR
03:01 12.4 °F 5.8 °F 1022.9 in WSW 1.9 mph   64 % 0.0 in 0.0 W/m2 CLR
03:06 12.7 °F 5.8 °F 1022.6 in SW 5.6 mph 5.6 mph 63 % 0.0 in 0.0 W/m2 CLR
03:11 12.9 °F 5.8 °F 1022.6 in Calm     62 % 0.0 in 0.0 W/m2 CLR
03:16 12.7 °F 5.8 °F 1022.6 in Calm     63 % 0.0 in 0.0 W/m2 CLR
03:22 12.3 °F 5.7 °F 1022.6 in Calm     64 % 0.0 in 0.0 W/m2 CLR
03:27 12.2 °F 5.6 °F 1022.6 in Calm     64 % 0.0 in 0.0 W/m2 CLR
03:32 12.2 °F 5.6 °F 1022.6 in Calm     64 % 0.0 in 0.0 W/m2 CLR
03:37 12.2 °F 5.4 °F 1022.6 in Calm     63 % 0.0 in 0.0 W/m2 CLR
03:42 12.3 °F 5.4 °F 1022.2 in Calm     63 % 0.0 in 0.0 W/m2 CLR
03:47 12.3 °F 5.5 °F 1022.2 in Calm     63 % 0.0 in 0.0 W/m2 CLR
03:52 12.3 °F 5.5 °F 1022.2 in Calm     63 % 0.0 in 0.0 W/m2 CLR
03:57 12.3 °F 5.4 °F 1022.2 in Calm     63 % 0.0 in 0.0 W/m2 CLR
04:02 12.2 °F 5.4 °F 1022.2 in Calm     63 % 0.0 in 0.0 W/m2 CLR
04:07 12.2 °F 5.3 °F 1022.2 in Calm     63 % 0.0 in 0.0 W/m2 CLR
04:12 12.1 °F 5.5 °F 1022.2 in Calm     64 % 0.0 in 0.0 W/m2 CLR
04:17 12.0 °F 5.4 °F 1022.2 in Calm     64 % 0.0 in 0.0 W/m2 CLR
04:22 11.9 °F 5.5 °F 1022.2 in Calm   0.2 mph 65 % 0.0 in 0.0 W/m2 CLR
04:27 11.8 °F 5.4 °F 1021.9 in Calm     65 % 0.0 in 0.0 W/m2 CLR
04:32 11.6 °F 5.2 °F 1021.9 in Calm     65 % 0.0 in 0.0 W/m2 CLR
04:38 11.6 °F 5.2 °F 1021.9 in Calm     65 % 0.0 in 0.0 W/m2 CLR
04:43 11.6 °F 5.2 °F 1021.9 in Calm     65 % 0.0 in 0.0 W/m2 CLR
04:48 11.6 °F 5.2 °F 1021.9 in Calm     65 % 0.0 in 0.0 W/m2 CLR
04:53 11.7 °F 5.3 °F 1021.9 in Calm     65 % 0.0 in 0.0 W/m2 CLR
04:58 11.8 °F 5.2 °F 1021.9 in Calm     64 % 0.0 in 0.0 W/m2 CLR
05:03 11.8 °F 5.2 °F 1021.9 in Calm     64 % 0.0 in 0.0 W/m2 CLR
05:08 11.8 °F 5.2 °F 1021.9 in Calm     64 % 0.0 in 0.0 W/m2 CLR
05:13 11.8 °F 5.2 °F 1021.9 in Calm     64 % 0.0 in 0.0 W/m2 CLR
05:18 11.7 °F 5.1 °F 1021.9 in Calm     64 % 0.0 in 0.0 W/m2 CLR
05:23 11.8 °F 5.2 °F 1021.9 in Calm     64 % 0.0 in 0.0 W/m2 CLR
05:28 11.9 °F 5.1 °F 1021.9 in Calm     63 % 0.0 in 0.0 W/m2 CLR
05:33 12.1 °F 5.2 °F 1021.9 in Calm     63 % 0.0 in 0.0 W/m2 CLR
05:38 12.1 °F 5.2 °F 1021.9 in Calm     63 % 0.0 in 0.0 W/m2 CLR
05:43 12.3 °F 5.3 °F 1021.9 in WSW 9.3 mph 9.3 mph 62 % 0.0 in 0.0 W/m2 CLR
05:48 13.6 °F 5.2 °F 1021.9 in West 13.0 mph 13.0 mph 57 % 0.0 in 0.0 W/m2 CLR
05:53 15.0 °F 5.2 °F 1021.9 in WSW 11.1 mph 11.1 mph 52 % 0.0 in 0.0 W/m2 CLR
05:58 15.5 °F 5.1 °F 1021.6 in West 12.9 mph 12.9 mph 50 % 0.0 in 0.0 W/m2 CLR
06:03 15.2 °F 5.2 °F 1021.6 in WSW 3.7 mph 3.7 mph 51 % 0.0 in 0.0 W/m2 CLR
06:08 14.3 °F 4.9 °F 1021.6 in WSW 5.6 mph 5.6 mph 53 % 0.0 in 0.0 W/m2 CLR
06:13 13.8 °F 4.9 °F 1021.6 in WSW 11.1 mph 11.1 mph 55 % 0.0 in 0.0 W/m2 CLR
06:18 13.7 °F 4.8 °F 1021.9 in WSW 7.4 mph 7.4 mph 55 % 0.0 in 0.0 W/m2 CLR
06:23 13.8 °F 4.9 °F 1021.9 in SW 5.6 mph 5.6 mph 55 % 0.0 in 0.0 W/m2 CLR
06:28 14.1 °F 4.7 °F 1021.9 in WSW 5.6 mph 5.6 mph 53 % 0.0 in 0.0 W/m2 CLR
06:33 14.3 °F 4.8 °F 1021.9 in Calm     53 % 0.0 in 0.0 W/m2 CLR
06:38 14.1 °F 4.9 °F 1021.9 in Calm     54 % 0.0 in 0.0 W/m2 CLR
06:43 13.6 °F 4.7 °F 1021.9 in Calm     55 % 0.0 in 0.0 W/m2 CLR
06:48 13.2 °F 4.6 °F 1021.9 in Calm     56 % 0.0 in 0.0 W/m2 CLR
06:53 12.9 °F 4.6 °F 1021.9 in Calm     57 % 0.0 in 0.0 W/m2 CLR
06:58 12.7 °F 4.7 °F 1021.9 in Calm     58 % 0.0 in 0.0 W/m2 CLR
07:03 12.4 °F 4.6 °F 1021.9 in Calm     59 % 0.0 in 0.0 W/m2 CLR
07:08 12.1 °F 4.5 °F 1021.9 in Calm     60 % 0.0 in 0.0 W/m2 CLR
07:13 11.9 °F 4.6 °F 1021.9 in Calm     61 % 0.0 in 0.0 W/m2 OVC
07:18 11.8 °F 4.5 °F 1021.9 in Calm     61 % 0.0 in 0.0 W/m2 OVC
07:23 11.8 °F 4.7 °F 1021.9 in Calm     62 % 0.0 in 5.0 W/m2 OVC
07:28 11.7 °F 4.7 °F 1021.9 in Calm     62 % 0.0 in 9.0 W/m2 BKN
07:33 11.7 °F 4.6 °F 1021.9 in Calm     62 % 0.0 in 11.0 W/m2 BKN
07:38 11.7 °F 4.6 °F 1021.9 in Calm     62 % 0.0 in 14.0 W/m2 BKN
07:43 11.6 °F 4.6 °F 1021.9 in Calm     62 % 0.0 in 16.0 W/m2 BKN
07:48 11.7 °F 4.8 °F 1021.9 in Calm     63 % 0.0 in 21.0 W/m2 BKN
07:53 11.8 °F 4.9 °F 1021.9 in Calm     63 % 0.0 in 26.0 W/m2 BKN
07:58 11.9 °F 4.8 °F 1021.9 in Calm     62 % 0.0 in 42.0 W/m2 BKN
08:04 12.1 °F 5.3 °F 1021.9 in Calm     63 % 0.0 in 47.0 W/m2 SCT
08:09 12.4 °F 5.3 °F 1021.9 in Calm     62 % 0.0 in 69.0 W/m2 SCT
08:14 12.8 °F 5.7 °F 1022.2 in Calm     62 % 0.0 in 79.0 W/m2 FEW
08:19 13.1 °F 5.5 °F 1021.9 in Calm     60 % 0.0 in 90.0 W/m2 CLR
08:24 13.3 °F 5.9 °F 1021.9 in Calm     61 % 0.0 in 83.0 W/m2 FEW
08:29 13.9 °F 6.3 °F 1021.9 in WSW 4.8 mph 4.8 mph 60 % 0.0 in 109.0 W/m2 CLR
08:34 14.8 °F 5.9 °F 1021.9 in SW 5.6 mph 5.6 mph 55 % 0.0 in 84.0 W/m2 CLR
08:39 15.9 °F 6.1 °F 1021.9 in WSW 11.1 mph 11.1 mph 52 % 0.0 in 174.0 W/m2 CLR
08:44 17.1 °F 6.0 °F 1021.9 in SW 5.6 mph 5.6 mph 48 % 0.0 in 197.0 W/m2 CLR
08:49 17.8 °F 6.3 °F 1021.9 in SSW 11.1 mph 11.1 mph 47 % 0.0 in 216.0 W/m2 CLR
08:54 17.7 °F 7.2 °F 1021.9 in Calm     50 % 0.0 in 234.0 W/m2 CLR
08:59 17.8 °F 6.3 °F 1021.9 in WSW 7.4 mph 7.4 mph 47 % 0.0 in 253.0 W/m2 CLR
09:04 18.4 °F 6.6 °F 1021.9 in WNW 11.3 mph 11.3 mph 46 % 0.0 in 271.0 W/m2 CLR
09:09 19.1 °F 5.2 °F 1021.9 in WSW 18.5 mph 18.5 mph 40 % 0.0 in 287.0 W/m2 CLR
09:14 19.8 °F 5.8 °F 1021.9 in SW 9.3 mph 9.3 mph 40 % 0.0 in 301.0 W/m2 CLR
09:19 20.2 °F 6.2 °F 1021.9 in SW 13.0 mph 13.0 mph 40 % 0.0 in 315.0 W/m2 CLR
09:24 20.5 °F 5.3 °F 1021.9 in WSW 16.7 mph 16.7 mph 37 % 0.0 in 332.0 W/m2 CLR
09:29 20.8 °F 5.6 °F 1021.9 in WSW 9.3 mph 9.3 mph 37 % 0.0 in 348.0 W/m2 CLR
09:34 21.1 °F 5.4 °F 1021.9 in WSW 9.7 mph 9.7 mph 36 % 0.0 in 366.0 W/m2 CLR
09:39 21.2 °F 5.2 °F 1021.9 in WSW 19.3 mph 19.3 mph 35 % 0.0 in 380.0 W/m2 CLR
09:44 21.4 °F 5.7 °F 1021.9 in WNW 13.0 mph 13.0 mph 36 % 0.0 in 394.0 W/m2 CLR
09:49 21.6 °F 4.6 °F 1021.6 in West 18.5 mph 18.5 mph 33 % 0.0 in 410.0 W/m2 CLR
09:54 21.7 °F 5.2 °F 1021.6 in WNW 11.3 mph 11.3 mph 34 % 0.0 in 424.0 W/m2 CLR
09:59 21.8 °F 5.3 °F 1021.6 in WNW 14.8 mph 14.8 mph 34 % 0.0 in 438.0 W/m2 CLR
10:04 21.9 °F 5.3 °F 1021.6 in WNW 11.1 mph 11.1 mph 34 % 0.0 in 452.0 W/m2 CLR
10:09 22.1 °F 5.4 °F 1021.6 in WSW 14.8 mph 14.8 mph 34 % 0.0 in 466.0 W/m2 CLR
10:14 22.2 °F 4.7 °F 1021.6 in WNW 22.2 mph 22.2 mph 32 % 0.0 in 478.0 W/m2 CLR
10:19 22.2 °F 5.2 °F 1021.6 in WNW 24.1 mph 24.1 mph 33 % 0.0 in 490.0 W/m2 CLR
10:24 22.3 °F 4.8 °F 1021.6 in West 19.3 mph 19.3 mph 32 % 0.0 in 503.0 W/m2 CLR
10:29 22.4 °F 4.9 °F 1021.6 in WNW 14.8 mph 14.8 mph 32 % 0.0 in 513.0 W/m2 CLR
10:34 22.6 °F 5.5 °F 1021.2 in NW 22.2 mph 22.2 mph 33 % 0.0 in 529.0 W/m2 CLR
10:39 22.7 °F 5.1 °F 1021.2 in West 24.1 mph 24.1 mph 32 % 0.0 in 541.0 W/m2 CLR
10:44 22.8 °F 4.8 °F 1021.2 in West 31.5 mph 31.5 mph 31 % 0.0 in 554.0 W/m2 CLR
10:49 23.0 °F 4.9 °F 1021.2 in WNW 24.1 mph 24.1 mph 31 % 0.0 in 563.0 W/m2 CLR
10:54 23.2 °F 5.2 °F 1021.2 in West 24.1 mph 24.1 mph 31 % 0.0 in 575.0 W/m2 CLR
10:59 23.4 °F 5.7 °F 1021.2 in WNW 18.5 mph 18.5 mph 32 % 0.0 in 584.0 W/m2 CLR
11:04 23.6 °F 6.8 °F 1021.2 in WNW 17.7 mph 17.7 mph 34 % 0.0 in 594.0 W/m2 CLR
11:09 23.6 °F 5.9 °F 1021.2 in WNW 25.9 mph 25.9 mph 32 % 0.0 in 603.0 W/m2 CLR
11:14 23.6 °F 5.9 °F 1021.2 in NNW 25.9 mph 25.9 mph 32 % 0.0 in 615.0 W/m2 CLR
11:19 23.6 °F 5.5 °F 1021.2 in WNW 29.6 mph 29.6 mph 31 % 0.0 in 624.0 W/m2 CLR
11:24 23.7 °F 6.5 °F 1021.2 in WNW 18.5 mph 18.5 mph 33 % 0.0 in 633.0 W/m2 CLR
11:29 23.9 °F 7.1 °F 1021.2 in WNW 18.5 mph 18.5 mph 34 % 0.0 in 642.0 W/m2 CLR
11:34 24.0 °F 6.3 °F 1020.9 in WNW 22.2 mph 22.2 mph 32 % 0.0 in 650.0 W/m2 CLR
11:39 23.9 °F 5.8 °F 1020.9 in NW 22.2 mph 22.2 mph 31 % 0.0 in 657.0 W/m2 CLR
11:44 24.1 °F 5.9 °F 1020.9 in WNW 18.5 mph 18.5 mph 31 % 0.0 in 666.0 W/m2 CLR
11:49 24.3 °F 6.1 °F 1020.9 in NW 14.5 mph 14.5 mph 31 % 0.0 in 673.0 W/m2 CLR
11:54 24.5 °F 6.3 °F 1020.9 in WNW 22.5 mph 22.5 mph 31 % 0.0 in 682.0 W/m2 CLR
11:59 24.5 °F 5.8 °F 1020.9 in NW 24.1 mph 24.1 mph 30 % 0.0 in 689.0 W/m2 CLR
12:04 24.6 °F 5.8 °F 1020.5 in WNW 18.5 mph 18.5 mph 30 % 0.0 in 694.0 W/m2 CLR
12:09 24.7 °F 5.5 °F 1020.5 in NW 24.1 mph 24.1 mph 29 % 0.0 in 700.0 W/m2 CLR
12:14 24.8 °F 5.6 °F 1020.5 in WNW 20.4 mph 20.4 mph 29 % 0.0 in 705.0 W/m2 CLR
12:19 24.9 °F 4.7 °F 1020.5 in NW 20.4 mph 20.4 mph 27 % 0.0 in 710.0 W/m2 CLR
12:24 25.1 °F 5.3 °F 1020.5 in WNW 16.7 mph 16.7 mph 28 % 0.0 in 712.0 W/m2 CLR
12:29 25.2 °F 4.9 °F 1020.5 in NNW 24.1 mph 24.1 mph 27 % 0.0 in 715.0 W/m2 CLR
12:34 25.2 °F 5.3 °F 1020.5 in NW 25.9 mph 25.9 mph 28 % 0.0 in 719.0 W/m2 CLR
12:40 25.2 °F 5.4 °F 1020.2 in NNW 25.9 mph 25.9 mph 28 % 0.0 in 721.0 W/m2 CLR
12:45 25.2 °F 5.4 °F 1020.2 in NNW 33.3 mph 33.3 mph 28 % 0.0 in 726.0 W/m2 CLR
12:50 25.3 °F 4.9 °F 1020.2 in NW 24.1 mph 24.1 mph 27 % 0.0 in 728.0 W/m2 CLR
12:55 25.4 °F 5.6 °F 1019.9 in WNW 20.9 mph 20.9 mph 28 % 0.0 in 733.0 W/m2 CLR
13:00 25.4 °F 3.9 °F 1020.2 in NW 31.5 mph 31.5 mph 25 % 0.0 in 733.0 W/m2 CLR
13:05 25.6 °F 5.2 °F 1019.9 in NW 24.1 mph 24.1 mph 27 % 0.0 in 733.0 W/m2 CLR
13:10 25.8 °F 5.3 °F 1019.9 in NW 22.2 mph 22.2 mph 27 % 0.0 in 731.0 W/m2 CLR
13:15 25.8 °F 5.4 °F 1019.9 in NNW 16.7 mph 16.7 mph 27 % 0.0 in 731.0 W/m2 CLR
13:20 25.6 °F 4.1 °F 1019.9 in NNW 31.5 mph 31.5 mph 25 % 0.0 in 729.0 W/m2 CLR
13:25 25.6 °F 4.6 °F 1019.5 in WNW 35.2 mph 35.2 mph 26 % 0.0 in 733.0 W/m2 CLR
13:30 25.6 °F 4.1 °F 1019.5 in WNW 22.2 mph 22.2 mph 25 % 0.0 in 729.0 W/m2 CLR
13:35 25.8 °F 4.8 °F 1019.5 in WNW 27.8 mph 27.8 mph 26 % 0.0 in 728.0 W/m2 CLR
13:40 25.9 °F 4.3 °F 1019.5 in NW 29.6 mph 29.6 mph 25 % 0.0 in 726.0 W/m2 CLR
13:45 25.9 °F 4.9 °F 1019.2 in NNW 19.3 mph 19.3 mph 26 % 0.0 in 724.0 W/m2 CLR
13:50 26.1 °F 4.6 °F 1019.2 in NW 27.8 mph 27.8 mph 25 % 0.0 in 721.0 W/m2 CLR
13:55 26.2 °F 5.2 °F 1019.2 in NNW 24.1 mph 24.1 mph 26 % 0.0 in 719.0 W/m2 CLR
14:00 26.2 °F 5.2 °F 1019.2 in North 29.6 mph 29.6 mph 26 % 0.0 in 717.0 W/m2 CLR
14:05 26.3 °F 4.1 °F 1019.2 in NW 20.4 mph 20.4 mph 24 % 0.0 in 712.0 W/m2 CLR
14:10 26.7 °F 5.1 °F 1018.8 in NNW 20.4 mph 20.4 mph 25 % 0.0 in 708.0 W/m2 CLR
14:15 26.7 °F 3.8 °F 1018.8 in NW 27.8 mph 27.8 mph 23 % 0.0 in 703.0 W/m2 CLR
14:20 26.7 °F 3.2 °F 1018.8 in NNW 29.6 mph 29.6 mph 22 % 0.0 in 700.0 W/m2 CLR
14:25 26.7 °F 3.2 °F 1018.8 in NNW 27.8 mph 27.8 mph 22 % 0.0 in 693.0 W/m2 CLR
14:30 26.7 °F 3.8 °F 1018.5 in NW 29.6 mph 29.6 mph 23 % 0.0 in 684.0 W/m2 CLR
14:35 26.9 °F 4.6 °F 1018.8 in NW 18.5 mph 18.5 mph 24 % 0.0 in 682.0 W/m2 CLR
14:40 26.9 °F 4.6 °F 1018.5 in NNW 25.9 mph 25.9 mph 24 % 0.0 in 675.0 W/m2 CLR
14:45 26.8 °F 3.9 °F 1018.5 in NNW 22.2 mph 22.2 mph 23 % 0.0 in 666.0 W/m2 CLR
14:50 27.1 °F 4.2 °F 1018.5 in NNW 24.1 mph 24.1 mph 23 % 0.0 in 656.0 W/m2 CLR
14:55 27.1 °F 4.1 °F 1018.5 in NNW 29.6 mph 29.6 mph 23 % 0.0 in 650.0 W/m2 CLR
15:00 27.1 °F 4.1 °F 1018.2 in North 27.8 mph 27.8 mph 23 % 0.0 in 640.0 W/m2 CLR
15:05 27.1 °F 4.7 °F 1018.2 in NNW 25.9 mph 25.9 mph 24 % 0.0 in 635.0 W/m2 CLR
15:10 27.2 °F 5.4 °F 1018.2 in NNW 20.4 mph 20.4 mph 25 % 0.0 in 624.0 W/m2 CLR
15:15 27.1 °F 3.6 °F 1018.2 in North 27.8 mph 27.8 mph 22 % 0.0 in 612.0 W/m2 CLR
15:20 27.3 °F 4.9 °F 1018.2 in NW 25.9 mph 25.9 mph 24 % 0.0 in 605.0 W/m2 CLR
15:25 27.2 °F 4.3 °F 1017.8 in NNW 25.9 mph 25.9 mph 23 % 0.0 in 594.0 W/m2 CLR
15:30 27.2 °F 5.5 °F 1017.8 in NNW 20.4 mph 20.4 mph 25 % 0.0 in 580.0 W/m2 CLR
15:35 27.3 °F 5.6 °F 1017.8 in NNW 25.7 mph 25.7 mph 25 % 0.0 in 570.0 W/m2 CLR
15:40 27.3 °F 4.3 °F 1017.8 in NW 24.1 mph 24.1 mph 23 % 0.0 in 568.0 W/m2 CLR
15:45 27.4 °F 4.4 °F 1017.8 in NNW 16.7 mph 16.7 mph 23 % 0.0 in 548.0 W/m2 CLR
15:50 27.5 °F 3.2 °F 1017.8 in NNW 25.9 mph 25.9 mph 21 % 0.0 in 538.0 W/m2 CLR
15:55 27.2 °F 4.9 °F 1017.8 in NNW 20.4 mph 20.4 mph 24 % 0.0 in 522.0 W/m2 CLR
16:00 27.2 °F 4.3 °F 1017.5 in NW 24.1 mph 24.1 mph 23 % 0.0 in 517.0 W/m2 CLR
16:05 27.2 °F 4.9 °F 1017.5 in NNW 24.1 mph 24.1 mph 24 % 0.0 in 497.0 W/m2 CLR
16:10 27.3 °F 5.5 °F 1017.5 in NNW 19.3 mph 19.3 mph 25 % 0.0 in 483.0 W/m2 CLR
16:15 27.3 °F 5.0 °F 1017.5 in WNW 20.9 mph 20.9 mph 24 % 0.0 in 469.0 W/m2 CLR
16:20 27.4 °F 5.0 °F 1017.2 in NW 18.5 mph 18.5 mph 24 % 0.0 in 455.0 W/m2 CLR
16:25 27.4 °F 5.7 °F 1017.5 in NW 14.8 mph 14.8 mph 25 % 0.0 in 443.0 W/m2 CLR
16:30 27.5 °F 6.3 °F 1017.2 in WNW 17.7 mph 17.7 mph 26 % 0.0 in 427.0 W/m2 CLR
16:35 27.4 °F 4.4 °F 1017.2 in NW 16.7 mph 16.7 mph 23 % 0.0 in 417.0 W/m2 CLR
16:40 27.4 °F 4.4 °F 1017.2 in NNW 18.5 mph 18.5 mph 23 % 0.0 in 403.0 W/m2 CLR
16:45 27.3 °F 3.1 °F 1017.2 in NW 22.2 mph 22.2 mph 21 % 0.0 in 387.0 W/m2 CLR
16:50 27.3 °F 3.1 °F 1017.2 in NNW 20.4 mph 20.4 mph 21 % 0.0 in 373.0 W/m2 CLR
16:55 27.3 °F 3.1 °F 1017.2 in NW 18.5 mph 18.5 mph 21 % 0.0 in 355.0 W/m2 CLR
17:00 27.3 °F 2.3 °F 1017.2 in NNW 18.5 mph 18.5 mph 20 % 0.0 in 341.0 W/m2 CLR
17:05 27.3 °F 3.1 °F 1017.2 in North 14.8 mph 14.8 mph 21 % 0.0 in 325.0 W/m2 CLR
17:10 27.3 °F 1.7 °F 1017.2 in NW 27.8 mph 27.8 mph 19 % 0.0 in 311.0 W/m2 CLR
17:15 27.1 °F 1.5 °F 1016.8 in NW 25.9 mph 25.9 mph 19 % 0.0 in 294.0 W/m2 CLR
17:20 27.1 °F 2.2 °F 1017.2 in NW 14.5 mph 14.5 mph 20 % 0.0 in 278.0 W/m2 CLR
17:25 27.1 °F 0.7 °F 1016.8 in North 20.4 mph 20.4 mph 18 % 0.0 in 260.0 W/m2 CLR
17:30 27.1 °F 1.4 °F 1016.8 in NW 18.5 mph 18.5 mph 19 % 0.0 in 243.0 W/m2 CLR
17:35 26.9 °F 1.3 °F 1016.8 in NW 14.8 mph 14.8 mph 19 % 0.0 in 220.0 W/m2 CLR
17:40 26.8 °F 2.0 °F 1016.8 in NNW 14.8 mph 14.8 mph 20 % 0.0 in 200.0 W/m2 CLR
17:45 26.8 °F 1.9 °F 1016.8 in NNW 16.7 mph 16.7 mph 20 % 0.0 in 181.0 W/m2 CLR
17:50 26.7 °F 2.5 °F 1017.2 in NNW 20.4 mph 20.4 mph 21 % 0.0 in 162.0 W/m2 CLR
17:56 26.5 °F 1.7 °F 1017.2 in NW 18.5 mph 18.5 mph 20 % 0.0 in 144.0 W/m2 CLR
18:01 26.4 °F 1.6 °F 1016.8 in NW 16.7 mph 16.7 mph 20 % 0.0 in 123.0 W/m2 CLR
18:06 26.3 °F 0.1 °F 1016.8 in NNW 16.7 mph 16.7 mph 18 % 0.0 in 105.0 W/m2 CLR
18:11 26.2 °F 1.4 °F 1016.8 in NW 14.8 mph 14.8 mph 20 % 0.0 in 88.0 W/m2 CLR
18:16 25.9 °F 0.6 °F 1016.8 in NW 18.5 mph 18.5 mph 19 % 0.0 in 56.0 W/m2 FEW
18:21 25.8 °F 1.8 °F 1017.2 in NW 14.8 mph 14.8 mph 21 % 0.0 in 54.0 W/m2 SCT
18:26 25.6 °F 1.6 °F 1017.2 in NW 6.4 mph 6.4 mph 21 % 0.0 in 44.0 W/m2 SCT
18:31 25.3 °F 1.4 °F 1017.2 in Calm     21 % 0.0 in 33.0 W/m2 BKN
18:36 25.3 °F 0.7 °F 1017.2 in Calm     20 % 0.0 in 23.0 W/m2 BKN
18:41 25.1 °F 0.6 °F 1017.2 in Calm     20 % 0.0 in 14.0 W/m2 BKN
18:46 24.7 °F 1.5 °F 1017.5 in Calm     22 % 0.0 in 12.0 W/m2 BKN
18:51 24.2 °F 1.2 °F 1017.5 in Calm     22 % 0.0 in 11.0 W/m2 BKN
18:56 23.9 °F 2.1 °F 1017.5 in Calm     24 % 0.0 in 7.0 W/m2 BKN
19:01 23.4 °F 1.7 °F 1017.5 in Calm     24 % 0.0 in 5.0 W/m2 OVC
19:06 22.8 °F 1.7 °F 1017.5 in Calm     25 % 0.0 in 0.0 W/m2 OVC
19:11 22.4 °F 0.8 °F 1017.5 in Calm     24 % 0.0 in 0.0 W/m2 CLR
19:16 22.2 °F 1.7 °F 1017.5 in Calm     26 % 0.0 in 0.0 W/m2 CLR
19:21 21.9 °F 2.1 °F 1017.5 in Calm     27 % 0.0 in 0.0 W/m2 CLR
19:26 21.5 °F 2.2 °F 1017.5 in Calm     28 % 0.0 in 0.0 W/m2 CLR
19:31 21.1 °F 2.4 °F 1017.8 in Calm     29 % 0.0 in 0.0 W/m2 CLR
19:36 20.7 °F 3.8 °F 1017.8 in Calm     33 % 0.0 in 0.0 W/m2 CLR
19:41 20.1 °F 3.3 °F 1017.8 in Calm     33 % 0.0 in 0.0 W/m2 CLR
19:46 19.4 °F 4.3 °F 1017.8 in Calm     37 % 0.0 in 0.0 W/m2 CLR
19:51 18.7 °F 4.5 °F 1017.8 in Calm     39 % 0.0 in 0.0 W/m2 CLR
19:56 18.1 °F 4.2 °F 1017.8 in Calm     40 % 0.0 in 0.0 W/m2 CLR
20:01 17.7 °F 4.3 °F 1017.8 in Calm     41 % 0.0 in 0.0 W/m2 CLR
20:06 17.4 °F 4.0 °F 1017.8 in Calm     41 % 0.0 in 0.0 W/m2 CLR
20:11 17.2 °F 3.8 °F 1017.8 in Calm     41 % 0.0 in 0.0 W/m2 CLR
20:16 17.0 °F 4.7 °F 1018.2 in Calm     44 % 0.0 in 0.0 W/m2 CLR
20:21 16.7 °F 4.3 °F 1018.2 in Calm     44 % 0.0 in 0.0 W/m2 CLR
20:26 16.4 °F 4.1 °F 1018.2 in Calm     44 % 0.0 in 0.0 W/m2 CLR
20:31 16.1 °F 4.2 °F 1018.2 in Calm     45 % 0.0 in 0.0 W/m2 CLR
20:36 15.8 °F 4.2 °F 1018.2 in Calm     46 % 0.0 in 0.0 W/m2 CLR
20:41 15.6 °F 4.3 °F 1018.2 in Calm     47 % 0.0 in 0.0 W/m2 CLR
20:46 15.2 °F 4.2 °F 1018.2 in Calm     48 % 0.0 in 0.0 W/m2 CLR
20:51 14.9 °F 4.3 °F 1018.5 in Calm     49 % 0.0 in 0.0 W/m2 CLR
20:56 14.8 °F 4.4 °F 1018.2 in Calm     50 % 0.0 in 0.0 W/m2 CLR
21:01 14.6 °F 4.5 °F 1018.5 in Calm     51 % 0.0 in 0.0 W/m2 CLR
21:06 14.2 °F 4.8 °F 1018.5 in Calm     53 % 0.0 in 0.0 W/m2 CLR
21:11 13.9 °F 4.4 °F 1018.5 in Calm     53 % 0.0 in 0.0 W/m2 CLR
21:16 13.7 °F 4.3 °F 1018.2 in Calm     53 % 0.0 in 0.0 W/m2 CLR
21:21 13.6 °F 4.4 °F 1018.5 in Calm     54 % 0.0 in 0.0 W/m2 CLR
21:26 13.3 °F 4.4 °F 1018.5 in Calm     55 % 0.0 in 0.0 W/m2 CLR
21:31 13.1 °F 4.3 °F 1018.5 in Calm     55 % 0.0 in 0.0 W/m2 CLR
21:36 13.0 °F 4.4 °F 1018.5 in Calm     56 % 0.0 in 0.0 W/m2 CLR
21:41 12.9 °F 4.4 °F 1018.5 in Calm     56 % 0.0 in 0.0 W/m2 CLR
21:46 13.0 °F 4.4 °F 1018.5 in Calm     56 % 0.0 in 0.0 W/m2 CLR
21:51 12.9 °F 4.1 °F 1018.5 in Calm     55 % 0.0 in 0.0 W/m2 CLR
21:56 12.9 °F 4.1 °F 1018.5 in Calm     55 % 0.0 in 0.0 W/m2 CLR
22:01 12.8 °F 4.3 °F 1018.5 in Calm     56 % 0.0 in 0.0 W/m2 CLR
22:06 12.6 °F 4.6 °F 1018.8 in Calm     58 % 0.0 in 0.0 W/m2 CLR
22:11 12.3 °F 4.6 °F 1018.8 in Calm     59 % 0.0 in 0.0 W/m2 CLR
22:16 12.1 °F 4.3 °F 1018.8 in Calm     59 % 0.0 in 0.0 W/m2 CLR
22:21 12.1 °F 4.5 °F 1018.8 in Calm     60 % 0.0 in 0.0 W/m2 CLR
22:26 11.9 °F 4.7 °F 1018.8 in Calm     61 % 0.0 in 0.0 W/m2 CLR
22:31 11.7 °F 4.4 °F 1018.8 in Calm     61 % 0.0 in 0.0 W/m2 CLR
22:36 11.6 °F 4.5 °F 1018.8 in Calm     62 % 0.0 in 0.0 W/m2 CLR
22:37 11.6 °F 4.5 °F 1018.8 in Calm     62 % 0.0 in 0.0 W/m2 CLR
22:42 11.4 °F 4.4 °F 1018.8 in Calm     62 % 0.0 in 0.0 W/m2 CLR
22:47 11.3 °F 4.5 °F 1018.8 in Calm     63 % 0.0 in 0.0 W/m2 CLR
22:52 11.2 °F 4.4 °F 1018.8 in Calm     63 % 0.0 in 0.0 W/m2 CLR
22:57 11.1 °F 4.3 °F 1018.8 in Calm     63 % 0.0 in 0.0 W/m2 CLR
23:02 11.1 °F 4.3 °F 1018.8 in Calm     63 % 0.0 in 0.0 W/m2 CLR
23:07 11.1 °F 4.3 °F 1018.8 in Calm     63 % 0.0 in 0.0 W/m2 CLR
23:12 11.2 °F 4.4 °F 1018.8 in Calm     63 % 0.0 in 0.0 W/m2 CLR
23:17 11.2 °F 4.4 °F 1018.8 in Calm     63 % 0.0 in 0.0 W/m2 CLR
23:22 11.2 °F 4.4 °F 1018.8 in Calm     63 % 0.0 in 0.0 W/m2 CLR
23:27 11.0 °F 4.4 °F 1019.2 in Calm     64 % 0.0 in 0.0 W/m2 CLR
23:32 10.7 °F 4.4 °F 1019.2 in Calm     65 % 0.0 in 0.0 W/m2 CLR
23:37 10.4 °F 4.3 °F 1019.2 in Calm     66 % 0.0 in 0.0 W/m2 CLR
23:42 10.3 °F 4.4 °F 1019.2 in Calm     67 % 0.0 in 0.0 W/m2 CLR
23:47 10.2 °F 4.3 °F 1019.2 in Calm     67 % 0.0 in 0.0 W/m2 CLR
23:52 10.2 °F 4.4 °F 1019.2 in Calm     67 % 0.0 in 0.0 W/m2 CLR
23:57 10.2 °F 4.5 °F 1019.2 in Calm     68 % 0.0 in 0.0 W/m2 CLR
Lo Temps de Massalio
Compliments of Weather Underground - 1.25 mb